Tiempo atmosférico en la estación meteorológica de Pamplona Aeropuerto, Navarra (459 m.)



Fecha
DESCASC
Temp. máxima en grados centígrados (hora)
DESCASC
Temp. mínima en grados centígrados (hora)
DESCASC
Temp. media en grados centígrados
DESCASC
Racha de viento máxima en m/sg (hora)
DESCASC
Velocidad máxima media en intervalos de 10 minutos(hora)
DESCASC
Precipitaciones diarias en mm
DESCASC
Precipitaciones de 00:00 a 06:00 en mm
DESCASC
Precipitaciones de 06:00 a 12:00 en mm
DESCASC
Precipitaciones de 12:00 a 18:00 en mm
DESCASC
Precipitaciones de 18:00 a 24:00 en mm
DESCASC
20-01-2019 6.9 (13:00) 3.5 (06:30) 5.2 12.78 (16:30) 9.17 (16:30) 2.9 0.9 0.5 0.7 0.8
19-01-2019 8.9 (15:20) -0.7 (08:20) 4.1 -- (--) -- (--) 1.9 0.2 0 0 1.7
18-01-2019 7 (15:00) -0.5 (-00:0) 3.3 3.61 (07:00) 2.78 (03:10) 0 0 0 0 0
17-01-2019 9.4 (14:20) -0.4 (00:00) 4.5 11.67 (15:10) 8.33 (15:10) 0 0 0 0 0
16-01-2019 8.4 (15:30) -2.9 (-00:0) 2.7 5 (15:40) 3.89 (15:50) 0 0 0 0 0
15-01-2019 12.5 (15:50) 0.2 (00:00) 6.4 9.17 (02:40) 6.11 (03:10) 0 0 0 0 0
14-01-2019 10.5 (14:20) 6.5 (00:00) 8.5 10.83 (14:50) 7.22 (06:20) 0 0 0 0 0
13-01-2019 9.2 (15:20) 5.5 (00:00) 7.3 12.78 (00:10) 8.33 (00:10) 0 0 0 0 0
12-01-2019 9.2 (13:10) 1.3 (00:00) 5.2 14.44 (14:40) 9.17 (14:00) 0 0 0 0 0
11-01-2019 6 (13:20) -1.4 (-00:0) 2.3 14.44 (08:00) 9.72 (15:40) 0 0 0 0 0
10-01-2019 3.8 (12:30) -1 (-00:0) 1.4 17.5 (03:40) 11.67 (14:20) 0 0 0 0 0
09-01-2019 8.8 (11:00) 2.8 (00:00) 5.8 16.94 (23:30) 11.39 (22:00) 0 0 0 0 0
08-01-2019 7.5 (13:30) 2.1 (00:00) 4.8 12.78 (15:40) 9.44 (16:00) 0 0 0 0 0
07-01-2019 4.3 (13:30) -0.5 (-00:0) 1.9 14.44 (04:40) 10.56 (16:00) 0 0 0 0 0
06-01-2019 9.4 (15:00) 0.6 (00:00) 5 12.78 (02:50) 8.89 (03:10) 0 0 0 0 0
05-01-2019 13.2 (13:10) -2.7 (-00:0) 5.2 10.83 (13:20) 8.33 (13:20) 0 0 0 0 0
04-01-2019 12.4 (13:20) -3.1 (-00:0) 4.6 11.67 (16:10) 8.61 (16:00) 0 0 0 0 0
03-01-2019 12.5 (14:50) -2.6 (-00:0) 5 11.39 (04:00) 7.5 (01:30) 0 0 0 0 0
02-01-2019 5.4 (11:40) 1.5 (00:00) 3.5 16.39 (12:50) 11.39 (12:40) 0 0 0 0 0
01-01-2019 12.9 (14:20) 2.9 (00:00) 7.9 12.78 (20:50) 9.44 (20:50) 0 0 0 0 0
31-12-2018 18.3 (15:00) -1.7 (-00:0) 8.3 11.39 (15:50) 8.89 (19:00) 0 0 0 0 0
30-12-2018 14.9 (14:50) -1.1 (-00:0) 6.9 14.44 (18:20) 6.67 (15:50) 0 0 0 0 0
29-12-2018 11.2 (13:50) 3.4 (00:00) 7.3 13.89 (14:20) 10 (14:20) 0 0 0 0 0
28-12-2018 10.7 (12:20) 0.2 (00:00) 5.4 9.72 (14:30) 7.22 (13:30) 0 0 0 0 0
27-12-2018 5 (00:00) 1.6 (00:00) 3.3 3.61 (06:40) 2.5 (06:50) 0 0 0 0 0
26-12-2018 7.3 (16:20) 3.5 (00:00) 5.4 4.17 (22:20) 3.06 (22:00) 0 0 0 0 0
25-12-2018 11.1 (15:50) 2.2 (00:00) 6.7 6.67 (21:40) 5.28 (22:00) 0 0 0 0 0
24-12-2018 -- (--) -- (--) -- -- (--) -- (--) -- 0 0 -- 0
23-12-2018 8.7 (15:40) 2.1 (00:00) 5.4 2.5 (00:10) 1.94 (03:10) 0 0 0 0 0

Gráficas

Temp. máximas Temp. mínimas Temp. medias Precipitaciones Rachas de viento máximas Velocidades máximas media en intervalos de 10 minutos

Datos horarios

Fecha y hora oficial Temperatura (ºC) Velocidad del viento (km/h) Dirección del viento Racha (km/h) Dirección de racha Precipitación (mm) Presión (hPa) Tendencia (hPa) Humedad (%)
2019-01-21 23:00:00 2.4 15 Noroeste 30 Noroeste 0 967.8 -0.5 85
2019-01-21 22:00:00 3.2 12 Noroeste 22 Noroeste 0 968.3 0.2 80
2019-01-21 21:00:00 3.2 8 Noroeste 17 Norte 0 968.4 0.7 77
2019-01-21 20:00:00 3.3 9 Noroeste 22 Noroeste 0 968.3 0.7 75
2019-01-21 19:00:00 3.6 15 Noroeste 24 Noroeste 0 968.1 0.4 77
2019-01-21 18:00:00 3.9 18 Noroeste 28 Norte 0 967.7 0.1 77
2019-01-21 17:00:00 4.4 19 Noroeste 33 Noroeste 0 967.6 -0.3 83
2019-01-21 16:00:00 4.4 15 Norte 32 Norte 0.3 967.7 -0.4 86
2019-01-21 15:00:00 4.6 17 Noroeste 37 Norte 0 967.6 -0.8 88
2019-01-21 14:00:00 5.2 23 Norte 41 Norte 0 967.9 0.1 77
2019-01-21 13:00:00 6.4 23 Norte 35 Norte 0 968.1 1 75
2019-01-21 12:00:00 5.3 24 Norte 35 Norte 0 968.4 1.8 84
2019-01-21 11:00:00 4.3 12 Noroeste 18 Noroeste 0.2 967.8 1.6 91
2019-01-21 10:00:00 3.5 9 Noroeste 21 Noroeste 0.1 967.1 1.4 91
2019-01-21 09:00:00 2.7 13 Noroeste 22 Noroeste 0.1 966.6 1.2 91
2019-01-21 08:00:00 2.9 14 Noroeste 28 Norte 0 966.2 0.6 90
2019-01-21 07:00:00 3.2 18 Noroeste 28 Norte 0 965.7 0.1 90
2019-01-21 06:00:00 2.9 19 Norte 24 Norte 0 965.4 0.2 90
2019-01-21 05:00:00 3.2 7 Oeste 15 Oeste 0 965.6 0.2 91
2019-01-21 04:00:00 3.1 5 Oeste 11 Norte 0.6 965.6 0.5 92
2019-01-21 03:00:00 3.2 6 Oeste 18 Noroeste 0 965.2 0.4 92
2019-01-21 02:00:00 3.4 14 Noroeste 22 Noroeste 0.2 965.4 1 92
2019-01-21 01:00:00 3.8 11 Noroeste 18 Noroeste -- 965.1 1.2 91
2019-01-21 00:00:00 3.8 13 Noroeste 22 Noroeste 0.1 964.8 1.3 91
2019-01-20 23:00:00 4.3 16 Noroeste 22 Noroeste 0 964.4 1.5 89
2019-01-20 22:00:00 4.3 5 Oeste 21 Norte 0.1 963.9 1.6 87
2019-01-20 21:00:00 4.6 8 Norte 18 Noroeste 0.2 963.5 1.9 89
2019-01-20 20:00:00 4.3 8 Noroeste 33 Norte 0.1 962.9 1.8 86
2019-01-20 19:00:00 5.1 13 Norte 22 Norte 0.3 962.3 1.9 88
2019-01-20 18:00:00 5.4 13 Noroeste 33 Norte 0 961.6 1.3 85
2019-01-20 17:00:00 5.8 26 Norte 46 Norte 0 961.1 0.9 81
2019-01-20 16:00:00 6 23 Norte 39 Norte 0 960.4 0.1 82
2019-01-20 15:00:00 5.7 9 Noroeste 33 Noroeste 0.6 960.3 -0.1 89
2019-01-20 14:00:00 6.8 16 Noroeste 28 Norte 0.1 960.2 0.6 84
2019-01-20 13:00:00 6.9 11 Norte 32 Norte 0 960.3 1.4 84
2019-01-20 12:00:00 6.2 10 Noroeste 24 Norte 0.1 960.4 1.8 87
2019-01-20 11:00:00 6.5 0 Calma 9 Norte 0 959.6 1.7 84
2019-01-20 10:00:00 4.2 7 Sur 9 Sur 0.1 958.9 1.4 95
2019-01-20 09:00:00 3.6 6 Oeste 9 Oeste 0.3 958.6 1.5 95
2019-01-20 08:00:00 3.6 0 Calma 11 Oeste 0 957.9 0.8 95
2019-01-20 07:00:00 3.5 6 Oeste 21 Oeste 0 957.5 0.5 96
2019-01-20 06:00:00 3.6 6 Oeste 9 Oeste 0 957.1 0.5 97
2019-01-20 05:00:00 3.7 5 Oeste 11 Noroeste 0 957.1 0.9 97
2019-01-20 04:00:00 3.8 9 Noroeste 11 Noroeste 0 957 0.9 96
2019-01-20 03:00:00 3.9 6 Noroeste 11 Este 0 956.6 0.7 92
2019-01-20 02:00:00 4 8 Este 15 Sudeste 0.3 956.2 0.4 89
2019-01-20 01:00:00 4.4 5 Sudeste 11 Sudeste 0.6 956.1 0.4 89
2019-01-20 00:00:00 4.5 4 Noroeste 9 Noroeste 0.9 955.9 0.3 93
2019-01-19 23:00:00 4.9 4 Norte -- -- 0.8 955.8 0 89
2019-01-19 22:00:00 5.5 5 Este 22 Sur 0 955.7 -0.4 82
2019-01-19 21:00:00 6.4 9 Sudeste 26 Sudeste 0 955.6 -0.7 72
2019-01-19 20:00:00 6.5 9 Sudeste 30 Sudeste 0 955.8 -1 71
2019-01-19 19:00:00 6.6 20 Sudeste 37 Sur 0 956.1 -1.1 69
2019-01-19 18:00:00 7.1 10 Sur 24 Sur 0 956.3 -1.6 66
2019-01-19 17:00:00 7.8 14 Sur 26 Sur 0 956.8 -2.4 64
2019-01-19 16:00:00 8.1 7 Este 21 Sudoeste 0 957.2 -3.2 66
2019-01-19 15:00:00 8 14 Sudoeste 24 Sur 0 957.9 -3.7 65
2019-01-19 14:00:00 7.6 8 Oeste 24 Sur 0 959.2 -2.9 72
2019-01-19 13:00:00 8.6 6 Sudeste 13 Sudeste 0 960.4 -1.7 67
2019-01-19 12:00:00 5.7 2 Este 9 Nordeste 0 961.6 -0.5 81
2019-01-19 11:00:00 2.7 5 Este 11 Nordeste 0 962.1 0.2 97
2019-01-19 10:00:00 1 4 Este -- -- 0 962.1 0.5 96
2019-01-19 09:00:00 -0.2 5 Sudeste 11 Sudoeste 0 962.1 0.1 97
2019-01-19 08:00:00 -0.4 6 Sudoeste 8 Sudoeste 0 961.9 -0.1 96
2019-01-19 07:00:00 1 5 Este 8 Este 0 961.6 -0.8 95
2019-01-19 06:00:00 1.7 2 Sur -- -- 0 962 -0.7 96
2019-01-19 05:00:00 1.6 3 Este -- -- 0 962 -0.8 96
2019-01-19 04:00:00 1.6 4 Sudeste 8 Sur 0 962.4 -0.6 96
2019-01-19 03:00:00 1.4 4 Sur 11 Sudeste 0.2 962.7 -0.5 96
2019-01-19 02:00:00 0.9 4 Sur -- -- 0 962.8 -0.2 95
2019-01-19 01:00:00 0.5 4 Sur 8 Sudeste 0 963 0.3 94
2019-01-19 00:00:00 1 5 Sur 9 Oeste 0 963.2 0.5 92
2019-01-18 23:00:00 2.2 0 Calma 11 Sudeste 0 963 0 90
2019-01-18 22:00:00 2.1 4 Sudeste 9 Sudeste 0 962.7 -0.4 90
2019-01-18 21:00:00 2.4 6 Sudeste 8 Sudeste 0 962.7 -0.2 90
2019-01-18 20:00:00 2.9 4 Este -- -- 0 963 -0.2 87
2019-01-18 19:00:00 4.3 3 Sudoeste 5 Sudoeste 0 963.1 -0.3 83
2019-01-18 18:00:00 5.7 0 Calma 5 Sur 0 962.9 -0.9 75
2019-01-18 17:00:00 6.5 4 Sudoeste 5 Sudoeste 0 963.2 -1.2 72
2019-01-18 16:00:00 6.5 2 Noroeste 9 Norte 0 963.4 -2 72
2019-01-18 15:00:00 6.8 3 Noroeste 8 Oeste 0 963.8 -2.2 71
2019-01-18 14:00:00 5.4 4 Noroeste 9 Noroeste 0 964.4 -1.9 81
2019-01-18 13:00:00 4.6 0 Calma 8 Sur 0 965.4 -0.6 83
2019-01-18 12:00:00 4.1 2 Sudoeste 5 Sudoeste 0 966 0.5 88
2019-01-18 11:00:00 3 0 Calma 9 Oeste 0 966.3 0.7 91
2019-01-18 10:00:00 2.2 2 Norte 8 Nordeste 0 966 0.4 94
2019-01-18 09:00:00 0.3 6 Nordeste 8 Nordeste 0 965.5 -0.4 97
2019-01-18 08:00:00 -0.3 3 Sur 8 Sur 0 965.6 -0.4 96
2019-01-18 07:00:00 -0.3 4 Sudoeste 13 Sudoeste 0 965.6 -1.4 95
2019-01-18 06:00:00 0.4 3 Este 11 Nordeste 0 965.9 -1.1 95
2019-01-18 05:00:00 0.8 5 Sur 11 Sur 0 966 -1.2 95
2019-01-18 04:00:00 1.3 0 Calma 11 Sudeste 0 967 -0.5 95
2019-01-18 03:00:00 0.9 7 Sur 9 Sur 0 967 -0.6 94
2019-01-18 02:00:00 1.5 2 Norte 5 Sudoeste 0 967.2 -0.3 94
2019-01-18 01:00:00 1.8 2 Sur -- -- 0 967.5 0.1 94
2019-01-18 00:00:00 2.5 5 Noroeste 9 Noroeste 0 967.6 0.4 90
2019-01-17 23:00:00 3.9 4 Norte 13 Nordeste 0 967.5 0.6 88
2019-01-17 22:00:00 4.2 8 Norte 11 Norte 0 967.4 1.1 84
2019-01-17 21:00:00 4.5 9 Noroeste 15 Noroeste 0 967.2 1.6 84
2019-01-17 20:00:00 5.1 13 Noroeste 22 Noroeste 0 966.9 1.2 81
2019-01-17 19:00:00 5.2 14 Noroeste 26 Noroeste 0 966.3 0.7 80
2019-01-17 18:00:00 6 5 Noroeste 22 Noroeste 0 965.6 0.7 76
2019-01-17 17:00:00 6.3 18 Norte 35 Norte 0 965.7 0.4 73
2019-01-17 16:00:00 7 24 Norte 42 Noroeste 0 965.6 -0.3 71
2019-01-17 15:00:00 9.1 23 Noroeste 37 Oeste 0 964.9 -1.5 61
2019-01-17 14:00:00 8.7 23 Noroeste 32 Noroeste 0 965.3 -1.2 64
2019-01-17 13:00:00 8.4 19 Noroeste 30 Noroeste 0 965.9 0 71
2019-01-17 12:00:00 6.1 15 Noroeste 24 Oeste 0 966.4 1.4 81
2019-01-17 11:00:00 3.9 5 Oeste 13 Oeste 0 966.5 1.7 95
2019-01-17 10:00:00 2.6 5 Noroeste 9 Noroeste 0 965.9 1.7 97
2019-01-17 09:00:00 2 2 Este 5 Este 0 965 1.1 97
2019-01-17 08:00:00 1.6 0 Calma 5 Este 0 964.8 0.8 97
2019-01-17 07:00:00 1.4 3 Sudeste 9 Sur 0 964.2 0.2 98
2019-01-17 06:00:00 0.9 9 Sur -- -- 0 963.9 -0.2 98
2019-01-17 05:00:00 0.3 2 Sur 5 Sur 0 964 -0.2 98
2019-01-17 04:00:00 -0.2 3 Noroeste 8 Sur 0 964 -0.6 98
2019-01-17 03:00:00 0.2 5 Sudeste 9 Sur 0 964.1 -0.5 98
2019-01-17 02:00:00 0.1 6 Sur 9 Sur 0 964.2 -0.3 98
2019-01-17 01:00:00 -0.4 0 Calma 8 Sur 0 964.6 0.3 98
2019-01-17 00:00:00 0 6 Sudeste 11 Sudeste 0 964.6 0.3 98
2019-01-16 23:00:00 0.7 5 Sur 11 Sur 0 964.5 0.6 98
2019-01-16 22:00:00 1.2 9 Sur 15 Sur 0 964.3 1 97
2019-01-16 21:00:00 1.2 13 Sur 15 Sur 0 964.3 1.4 96
2019-01-16 20:00:00 1.2 8 Sur 11 Sur 0 963.9 1.4 94
2019-01-16 19:00:00 2.5 11 Sudeste 17 Sudeste 0 963.3 0.9 92
2019-01-16 18:00:00 4.1 11 Sudeste 18 Sur 0 962.9 0.3 85
2019-01-16 17:00:00 6.5 13 Sudeste 17 Sudeste 0 962.5 -0.7 77
2019-01-16 16:00:00 7.5 13 Sur 18 Sudeste 0 962.4 -1.7 72
2019-01-16 15:00:00 8.2 10 Sur 15 Sur 0 962.6 -2.4 71
2019-01-16 14:00:00 7.4 8 Sur 17 Sudeste 0 963.2 -2 74
2019-01-16 13:00:00 5.9 10 Sudeste 15 Sudeste 0 964.1 -0.9 83